Time;durP1;ratioP1;P1;durP2;ratioP2;P2;SDS_P1;SDS_P2;PMS_P1;PMS_P2;Temp;Humidity;BMP_temperature;BMP_pressure;BME280_temperature;BME280_humidity;BME280_pressure;Samples;Min_cycle;Max_cycle;Signal;HPM_P1;HPM_P2
2021/05/01 00:03:52;;;;;;;41.17;23.20;;;9.10;99.90;;;;;;6716742;88;20177;-76
2021/05/01 00:13:56;;;;;;;44.35;25.35;;;9.00;99.90;;;;;;6717551;88;20766;-75
2021/05/01 00:23:56;;;;;;;45.90;26.23;;;9.00;99.90;;;;;;6713877;88;20232;-75
2021/05/01 00:33:57;;;;;;;53.30;29.10;;;8.90;99.90;;;;;;6716848;88;20327;-75
2021/05/01 00:43:58;;;;;;;53.87;28.90;;;8.70;99.90;;;;;;6716032;88;20230;-75
2021/05/01 00:53:59;;;;;;;54.30;29.77;;;8.70;99.90;;;;;;6716027;88;20213;-76
2021/05/01 01:04:00;;;;;;;56.08;30.65;;;8.60;99.90;;;;;;6716644;88;20205;-75
2021/05/01 01:14:01;;;;;;;54.22;30.10;;;8.50;99.90;;;;;;6712529;88;20309;-75
2021/05/01 01:24:02;;;;;;;52.10;28.83;;;8.60;99.90;;;;;;6718169;88;20388;-74
2021/05/01 01:34:03;;;;;;;49.20;28.00;;;8.40;99.90;;;;;;6716482;88;20272;-74
2021/05/01 01:44:04;;;;;;;52.30;28.85;;;8.40;99.90;;;;;;6718527;88;20956;-75
2021/05/01 01:54:05;;;;;;;55.28;29.12;;;8.20;99.90;;;;;;6718708;88;20217;-74
2021/05/01 02:04:06;;;;;;;48.60;26.37;;;8.10;99.90;;;;;;6713446;88;20193;-74
2021/05/01 02:14:07;;;;;;;49.45;26.05;;;8.10;99.90;;;;;;6718432;88;20691;-74
2021/05/01 02:24:08;;;;;;;49.78;26.90;;;8.10;99.90;;;;;;6721976;88;20701;-75
2021/05/01 02:34:08;;;;;;;55.05;26.70;;;7.70;99.90;;;;;;6717717;88;20208;-74
2021/05/01 02:44:09;;;;;;;44.72;25.25;;;7.60;99.90;;;;;;6717816;88;20316;-74
2021/05/01 02:54:10;;;;;;;54.40;27.20;;;7.50;99.90;;;;;;6717798;88;20220;-75
2021/05/01 03:04:10;;;;;;;56.40;28.60;;;7.20;99.90;;;;;;6721971;88;20560;-74
2021/05/01 03:14:11;;;;;;;56.40;29.83;;;7.00;99.90;;;;;;6722647;88;20208;-73
2021/05/01 03:24:12;;;;;;;55.17;29.27;;;6.80;99.90;;;;;;6722715;88;20206;-73
2021/05/01 03:34:13;;;;;;;55.85;28.00;;;6.50;99.90;;;;;;6721449;88;20716;-74
2021/05/01 03:44:13;;;;;;;56.42;29.48;;;6.50;99.90;;;;;;6722187;88;20236;-74
2021/05/01 03:54:14;;;;;;;58.35;30.15;;;6.30;99.90;;;;;;6705599;88;21090;-74
2021/05/01 04:04:15;;;;;;;53.70;28.48;;;6.20;99.90;;;;;;6708362;88;20319;-74
2021/05/01 04:14:16;;;;;;;58.95;30.45;;;6.20;99.90;;;;;;6709165;88;20174;-76
2021/05/01 04:24:17;;;;;;;60.83;29.20;;;6.10;99.90;;;;;;6706924;88;20933;-76
2021/05/01 04:34:18;;;;;;;59.20;30.48;;;6.20;99.90;;;;;;6705111;88;20504;-74
2021/05/01 04:44:20;;;;;;;57.50;28.65;;;6.40;99.90;;;;;;6705750;88;20178;-76
2021/05/01 04:54:20;;;;;;;65.62;32.63;;;6.40;99.90;;;;;;6722389;88;20207;-76
2021/05/01 05:04:21;;;;;;;63.47;33.10;;;6.40;99.90;;;;;;6725732;88;20200;-74
2021/05/01 05:14:21;;;;;;;66.32;31.90;;;6.40;99.90;;;;;;6707396;88;20231;-74
2021/05/01 05:24:23;;;;;;;61.50;32.13;;;6.50;99.90;;;;;;6706956;88;20201;-73
2021/05/01 05:34:24;;;;;;;62.20;33.15;;;6.60;99.90;;;;;;6706999;88;20186;-74
2021/05/01 05:44:24;;;;;;;65.60;32.03;;;6.70;99.90;;;;;;6706746;88;20228;-74
2021/05/01 05:54:25;;;;;;;63.90;32.38;;;6.80;99.90;;;;;;6707076;88;20673;-73
2021/05/01 06:04:31;;;;;;;60.80;31.43;;;7.00;99.90;;;;;;6707245;88;20227;-77
2021/05/01 06:14:32;;;;;;;65.07;32.60;;;7.30;99.90;;;;;;6707566;88;21157;-74
2021/05/01 06:24:33;;;;;;;61.00;31.08;;;7.30;99.90;;;;;;6706666;88;20785;-74
2021/05/01 06:34:35;;;;;;;61.40;31.58;;;7.40;99.90;;;;;;6708078;88;20229;-76
2021/05/01 06:44:42;;;;;;;60.05;31.23;;;7.60;99.90;;;;;;6719065;88;20286;-75
2021/05/01 06:54:45;;;;;;;64.47;33.20;;;8.50;99.90;;;;;;6719581;88;20648;-74
2021/05/01 07:04:48;;;;;;;61.13;31.62;;;8.80;99.90;;;;;;6719996;88;20193;-75
2021/05/01 07:14:49;;;;;;;61.50;32.58;;;8.90;99.90;;;;;;6719970;88;20933;-75
2021/05/01 07:24:50;;;;;;;59.70;31.67;;;9.00;99.90;;;;;;6724209;88;20185;-76
2021/05/01 07:34:55;;;;;;;54.53;29.45;;;9.40;99.90;;;;;;6726663;88;20190;-76
2021/05/01 07:44:58;;;;;;;53.67;28.35;;;9.60;99.90;;;;;;6720536;88;20689;-73
2021/05/01 07:54:59;;;;;;;50.85;27.60;;;9.80;99.90;;;;;;6714596;88;20181;-76
2021/05/01 08:04:59;;;;;;;44.55;26.45;;;10.00;99.90;;;;;;6717224;88;20254;-74
2021/05/01 08:15:00;;;;;;;40.00;23.48;;;10.70;99.90;;;;;;6713101;88;20251;-75
2021/05/01 08:25:00;;;;;;;41.47;24.10;;;11.00;99.90;;;;;;6715280;88;20211;-75
2021/05/01 08:35:01;;;;;;;35.88;21.30;;;10.90;99.90;;;;;;6720141;88;20239;-75
2021/05/01 08:45:07;;;;;;;35.90;21.35;;;11.50;99.90;;;;;;6722072;88;20279;-75
2021/05/01 08:55:08;;;;;;;31.97;19.50;;;12.50;99.90;;;;;;6723097;88;20306;-77
2021/05/01 09:05:10;;;;;;;30.37;19.20;;;13.00;99.90;;;;;;6718237;88;20892;-77
2021/05/01 09:15:25;;;;;;;30.12;19.10;;;13.50;99.90;;;;;;6721801;88;20254;-76
2021/05/01 09:25:31;;;;;;;28.92;17.83;;;13.30;99.90;;;;;;6718194;88;20319;-76
2021/05/01 09:35:33;;;;;;;29.50;17.10;;;13.10;99.90;;;;;;6712689;88;20633;-75
2021/05/01 09:45:33;;;;;;;31.33;17.20;;;13.40;99.00;;;;;;6717569;88;20189;-76
2021/05/01 09:55:51;;;;;;;21.27;13.93;;;13.70;98.00;;;;;;6716193;88;20637;-76
2021/05/01 10:05:58;;;;;;;21.73;13.93;;;14.70;95.00;;;;;;6715079;88;21016;-77
2021/05/01 10:16:06;;;;;;;21.30;13.80;;;15.00;92.30;;;;;;6717767;88;20194;-75
2021/05/01 10:26:13;;;;;;;18.00;12.52;;;15.80;88.20;;;;;;6717988;88;20179;-78
2021/05/01 10:36:21;;;;;;;17.85;12.55;;;16.60;83.10;;;;;;6721936;88;20808;-77
2021/05/01 10:46:29;;;;;;;17.50;11.98;;;16.20;74.10;;;;;;6717570;88;20714;-75
2021/05/01 10:56:29;;;;;;;21.35;14.15;;;16.00;78.40;;;;;;6719252;88;20194;-75
2021/05/01 11:06:48;;;;;;;22.80;13.27;;;17.00;74.30;;;;;;6716497;88;20238;-76
2021/05/01 11:17:03;;;;;;;19.30;11.73;;;17.60;72.70;;;;;;6715992;88;20257;-76
2021/05/01 11:27:04;;;;;;;;;;;17.80;68.70;;;;;;6717584;88;20228;-77
2021/05/01 11:37:07;;;;;;;17.83;11.12;;;18.50;67.10;;;;;;6716453;88;20082;-75
2021/05/01 11:47:14;;;;;;;12.37;9.07;;;18.00;65.40;;;;;;6715759;88;20193;-77
2021/05/01 11:57:32;;;;;;;13.30;8.25;;;18.50;62.90;;;;;;6716054;88;20217;-76
2021/05/01 12:07:56;;;;;;;11.05;7.55;;;18.40;63.00;;;;;;6715423;88;20240;-75
2021/05/01 12:17:57;;;;;;;11.50;7.70;;;18.60;61.10;;;;;;6713444;88;20209;-76
2021/05/01 12:27:59;;;;;;;9.85;6.85;;;18.50;57.70;;;;;;6715381;88;20665;-76
2021/05/01 12:37:59;;;;;;;8.80;6.07;;;19.70;56.50;;;;;;6714720;88;20200;-77
2021/05/01 12:48:00;;;;;;;13.00;6.80;;;19.40;54.80;;;;;;6715793;88;20324;-75
2021/05/01 12:58:17;;;;;;;10.40;6.57;;;19.60;54.50;;;;;;6714990;88;20216;-75
2021/05/01 13:08:27;;;;;;;9.30;6.10;;;20.10;52.60;;;;;;6714448;88;20173;-75
2021/05/01 13:18:28;;;;;;;8.93;5.97;;;18.70;53.00;;;;;;6714187;88;20597;-75
2021/05/01 13:28:31;;;;;;;8.52;6.40;;;18.00;53.70;;;;;;6715512;88;20259;-75
2021/05/01 13:38:31;;;;;;;9.85;6.47;;;19.30;53.20;;;;;;6720203;88;20181;-75
2021/05/01 13:48:32;;;;;;;9.30;6.43;;;19.90;51.80;;;;;;6720858;88;20174;-75
2021/05/01 13:58:33;;;;;;;9.63;5.70;;;19.60;52.60;;;;;;6723540;88;20169;-76
2021/05/01 14:08:33;;;;;;;7.18;4.70;;;20.40;52.70;;;;;;6719023;88;20284;-76
2021/05/01 14:18:34;;;;;;;6.28;3.87;;;20.70;50.40;;;;;;6717536;88;20185;-76
2021/05/01 14:28:34;;;;;;;5.05;3.33;;;18.80;50.70;;;;;;6716673;88;20232;-75
2021/05/01 14:38:37;;;;;;;5.60;3.50;;;19.20;50.20;;;;;;6714203;88;20984;-75
2021/05/01 14:48:39;;;;;;;7.18;3.53;;;18.40;51.10;;;;;;6717499;88;20541;-75
2021/05/01 14:58:40;;;;;;;5.47;3.70;;;17.00;52.30;;;;;;6717678;88;20185;-75
2021/05/01 15:08:42;;;;;;;7.80;3.60;;;18.10;52.10;;;;;;6717840;88;20190;-76
2021/05/01 15:18:43;;;;;;;8.00;3.22;;;17.50;52.10;;;;;;6715990;88;20209;-76
2021/05/01 15:28:44;;;;;;;7.00;3.60;;;17.50;52.90;;;;;;6719261;88;20303;-78
2021/05/01 15:38:46;;;;;;;5.90;4.00;;;16.60;54.60;;;;;;6719362;88;20201;-78
2021/05/01 15:48:48;;;;;;;5.30;3.42;;;17.00;56.00;;;;;;6718202;88;20195;-76
2021/05/01 15:58:49;;;;;;;6.68;3.75;;;16.70;54.20;;;;;;6718060;88;20239;-76
2021/05/01 16:08:50;;;;;;;5.30;3.87;;;16.10;55.50;;;;;;6716926;88;20181;-76
2021/05/01 16:18:50;;;;;;;5.53;3.83;;;15.80;56.20;;;;;;6721239;88;20408;-76
2021/05/01 16:28:51;;;;;;;7.35;3.78;;;15.90;57.20;;;;;;6723080;88;20295;-76
2021/05/01 16:38:51;;;;;;;6.30;3.40;;;16.20;56.20;;;;;;6716518;88;20178;-75
2021/05/01 16:48:53;;;;;;;5.90;3.90;;;15.60;55.30;;;;;;6727756;88;20181;-76
2021/05/01 16:58:55;;;;;;;5.95;3.65;;;15.20;55.60;;;;;;6716823;88;20202;-76
2021/05/01 17:08:55;;;;;;;4.82;3.60;;;15.00;56.30;;;;;;6719398;88;20319;-76
2021/05/01 17:18:56;;;;;;;6.87;3.70;;;14.80;58.10;;;;;;6720638;88;20201;-76
2021/05/01 17:28:57;;;;;;;5.57;3.60;;;14.70;59.90;;;;;;6719873;88;20197;-76
2021/05/01 17:38:57;;;;;;;7.68;3.72;;;14.60;59.00;;;;;;6717410;88;20235;-77
2021/05/01 17:48:58;;;;;;;5.97;3.75;;;14.10;60.00;;;;;;6719088;88;20613;-77
2021/05/01 17:58:58;;;;;;;5.10;3.42;;;13.90;60.10;;;;;;6720486;88;20207;-77
2021/05/01 18:08:59;;;;;;;8.68;3.85;;;13.80;60.70;;;;;;6719047;88;20332;-77
2021/05/01 18:19:00;;;;;;;5.30;3.60;;;13.50;61.40;;;;;;6718531;88;20203;-77
2021/05/01 18:29:01;;;;;;;7.35;3.85;;;13.40;62.10;;;;;;6717352;88;20206;-77
2021/05/01 18:39:03;;;;;;;6.15;3.47;;;13.10;63.10;;;;;;6717459;88;20195;-76
2021/05/01 18:49:04;;;;;;;12.02;4.12;;;12.70;64.00;;;;;;6712371;88;20713;-76
2021/05/01 18:59:05;;;;;;;6.82;3.53;;;12.60;64.70;;;;;;6710180;88;20250;-76
2021/05/01 19:09:06;;;;;;;9.40;3.80;;;12.50;64.70;;;;;;6706287;88;20204;-76
2021/05/01 19:19:07;;;;;;;7.47;3.50;;;12.20;66.80;;;;;;6705358;88;20641;-75
2021/05/01 19:29:08;;;;;;;10.05;3.67;;;12.20;66.90;;;;;;6703297;88;20190;-76
2021/05/01 19:39:09;;;;;;;5.57;3.37;;;12.00;67.40;;;;;;6705687;88;20189;-76
2021/05/01 19:49:11;;;;;;;7.32;3.85;;;11.90;68.00;;;;;;6703227;88;20186;-76
2021/05/01 19:59:12;;;;;;;8.30;4.15;;;11.80;68.80;;;;;;6707984;88;20182;-75
2021/05/01 20:09:12;;;;;;;6.55;4.07;;;11.80;70.10;;;;;;6712176;88;20217;-74
2021/05/01 20:19:13;;;;;;;10.38;5.37;;;11.60;71.30;;;;;;6714536;88;20255;-74
2021/05/01 20:29:14;;;;;;;8.27;4.78;;;11.50;72.80;;;;;;6714135;88;20193;-74
2021/05/01 20:39:14;;;;;;;9.88;4.70;;;11.60;73.30;;;;;;6716658;88;20193;-75
2021/05/01 20:49:15;;;;;;;8.02;4.90;;;11.40;74.50;;;;;;6717486;88;20186;-75
2021/05/01 20:59:17;;;;;;;8.20;5.57;;;11.20;76.00;;;;;;6712532;88;20234;-75
2021/05/01 21:09:18;;;;;;;8.57;5.25;;;11.10;78.10;;;;;;6706678;88;20320;-74
2021/05/01 21:19:18;;;;;;;10.65;5.47;;;11.00;79.50;;;;;;6705247;88;20641;-74
2021/05/01 21:29:19;;;;;;;10.43;6.03;;;11.00;80.60;;;;;;6705797;88;20197;-75
2021/05/01 21:39:20;;;;;;;9.57;6.37;;;10.80;83.70;;;;;;6709984;88;20935;-75
2021/05/01 21:49:21;;;;;;;10.07;6.55;;;10.70;89.20;;;;;;6712390;88;20324;-74
2021/05/01 21:59:21;;;;;;;10.82;6.60;;;10.70;91.50;;;;;;6717115;88;20388;-74
2021/05/01 22:09:22;;;;;;;10.90;6.87;;;10.70;93.30;;;;;;6715959;88;20214;-75
2021/05/01 22:19:30;;;;;;;10.85;6.43;;;10.60;94.60;;;;;;6717959;88;20669;-75
2021/05/01 22:29:31;;;;;;;11.45;7.15;;;10.50;95.90;;;;;;6714783;88;20762;-76
2021/05/01 22:39:32;;;;;;;12.10;6.43;;;10.30;98.20;;;;;;6716669;88;20202;-75
2021/05/01 22:49:33;;;;;;;8.55;5.78;;;10.20;99.60;;;;;;6721362;88;20613;-75
2021/05/01 22:59:33;;;;;;;9.27;5.95;;;10.10;99.90;;;;;;6742266;88;20196;-76
2021/05/01 23:09:36;;;;;;;9.57;5.80;;;9.70;99.90;;;;;;6732280;88;20209;-74
2021/05/01 23:19:37;;;;;;;8.25;5.43;;;9.70;99.90;;;;;;6736135;88;20217;-77
2021/05/01 23:29:38;;;;;;;8.00;4.97;;;9.60;99.90;;;;;;6732115;88;20178;-75
2021/05/01 23:39:39;;;;;;;7.93;4.93;;;9.40;99.90;;;;;;6727280;88;20270;-77
2021/05/01 23:49:40;;;;;;;8.10;5.18;;;9.40;99.90;;;;;;6726848;88;20728;-75
2021/05/01 23:59:40;;;;;;;7.22;4.90;;;9.20;99.90;;;;;;6726109;88;20193;-75
